sensor_id;sensor_type;location;lat;lon;timestamp;pressure;altitude;pressure_sealevel;temperature;humidity
43814;BME280;29669;55.706;37.656;2023-02-07T00:01:32;101760.53;;;-2.48;nan
43814;BME280;29669;55.706;37.656;2023-02-07T00:04:03;101751.38;;;-2.55;nan
43814;BME280;29669;55.706;37.656;2023-02-07T00:06:37;101756.41;;;-2.53;nan
43814;BME280;29669;55.706;37.656;2023-02-07T00:09:06;101752.16;;;-2.53;nan
43814;BME280;29669;55.706;37.656;2023-02-07T00:11:35;101748.81;;;-2.55;nan
43814;BME280;29669;55.706;37.656;2023-02-07T00:14:09;101760.72;;;-2.57;nan
43814;BME280;29669;55.706;37.656;2023-02-07T00:16:38;101752.50;;;-2.68;nan
43814;BME280;29669;55.706;37.656;2023-02-07T00:21:34;101760.19;;;-2.71;nan
43814;BME280;29669;55.706;37.656;2023-02-07T00:26:30;101766.78;;;-2.62;nan
43814;BME280;29669;55.706;37.656;2023-02-07T00:28:58;101771.81;;;-2.61;nan
43814;BME280;29669;55.706;37.656;2023-02-07T00:31:32;101775.94;;;-2.54;nan
43814;BME280;29669;55.706;37.656;2023-02-07T00:34:04;101772.66;;;-2.60;nan
43814;BME280;29669;55.706;37.656;2023-02-07T00:36:34;101760.91;;;-2.66;nan
43814;BME280;29669;55.706;37.656;2023-02-07T00:39:10;101770.91;;;-2.57;nan
43814;BME280;29669;55.706;37.656;2023-02-07T00:41:39;101762.47;;;-2.57;nan
43814;BME280;29669;55.706;37.656;2023-02-07T00:44:10;101773.50;;;-2.60;nan
43814;BME280;29669;55.706;37.656;2023-02-07T00:46:39;101778.78;;;-2.69;nan
43814;BME280;29669;55.706;37.656;2023-02-07T00:49:07;101778.06;;;-2.75;nan
43814;BME280;29669;55.706;37.656;2023-02-07T00:51:34;101790.78;;;-2.77;nan
43814;BME280;29669;55.706;37.656;2023-02-07T00:54:07;101789.06;;;-2.75;nan
43814;BME280;29669;55.706;37.656;2023-02-07T00:56:36;101780.69;;;-2.80;nan
43814;BME280;29669;55.706;37.656;2023-02-07T00:59:04;101788.19;;;-2.74;nan
43814;BME280;29669;55.706;37.656;2023-02-07T01:01:34;101787.38;;;-2.76;nan
43814;BME280;29669;55.706;37.656;2023-02-07T01:04:02;101790.06;;;-2.82;nan
43814;BME280;29669;55.706;37.656;2023-02-07T01:06:31;101796.63;;;-2.72;nan
43814;BME280;29669;55.706;37.656;2023-02-07T01:09:02;101787.41;;;-2.77;nan
43814;BME280;29669;55.706;37.656;2023-02-07T01:11:30;101806.66;;;-2.66;nan
43814;BME280;29669;55.706;37.656;2023-02-07T01:13:59;101795.66;;;-2.66;nan
43814;BME280;29669;55.706;37.656;2023-02-07T01:16:34;101803.97;;;-2.58;nan
43814;BME280;29669;55.706;37.656;2023-02-07T01:19:06;101811.56;;;-2.57;nan
43814;BME280;29669;55.706;37.656;2023-02-07T01:26:38;101815.78;;;-2.56;nan
43814;BME280;29669;55.706;37.656;2023-02-07T01:31:41;101799.78;;;-2.61;nan
43814;BME280;29669;55.706;37.656;2023-02-07T01:34:11;101798.03;;;-2.59;nan
43814;BME280;29669;55.706;37.656;2023-02-07T01:36:39;101809.94;;;-2.61;nan
43814;BME280;29669;55.706;37.656;2023-02-07T01:39:15;101806.50;;;-2.58;nan
43814;BME280;29669;55.706;37.656;2023-02-07T01:41:43;101809.94;;;-2.59;nan
43814;BME280;29669;55.706;37.656;2023-02-07T01:49:31;101815.84;;;-2.57;nan
43814;BME280;29669;55.706;37.656;2023-02-07T01:52:08;101814.06;;;-2.55;nan
43814;BME280;29669;55.706;37.656;2023-02-07T01:54:44;101810.03;;;-2.64;nan
43814;BME280;29669;55.706;37.656;2023-02-07T01:57:18;101813.59;;;-2.74;nan
43814;BME280;29669;55.706;37.656;2023-02-07T01:59:52;101824.66;;;-2.75;nan
43814;BME280;29669;55.706;37.656;2023-02-07T02:02:27;101853.59;;;-2.82;nan
43814;BME280;29669;55.706;37.656;2023-02-07T02:04:56;101834.13;;;-2.84;nan
43814;BME280;29669;55.706;37.656;2023-02-07T02:07:31;101836.66;;;-2.83;nan
43814;BME280;29669;55.706;37.656;2023-02-07T02:09:59;101843.41;;;-2.82;nan
43814;BME280;29669;55.706;37.656;2023-02-07T02:36:02;101853.59;;;-2.82;nan
43814;BME280;29669;55.706;37.656;2023-02-07T02:38:57;101862.09;;;-2.84;nan
43814;BME280;29669;55.706;37.656;2023-02-07T02:41:39;101850.19;;;-2.82;nan
43814;BME280;29669;55.706;37.656;2023-02-07T02:44:13;101858.56;;;-2.77;nan
43814;BME280;29669;55.706;37.656;2023-02-07T02:46:44;101867.84;;;-2.75;nan
43814;BME280;29669;55.706;37.656;2023-02-07T02:49:14;101873.66;;;-2.70;nan
43814;BME280;29669;55.706;37.656;2023-02-07T02:51:43;101863.63;;;-2.74;nan
43814;BME280;29669;55.706;37.656;2023-02-07T02:54:32;101871.09;;;-2.67;nan
43814;BME280;29669;55.706;37.656;2023-02-07T02:57:39;101874.47;;;-2.68;nan
43814;BME280;29669;55.706;37.656;2023-02-07T03:03:38;101880.75;;;-2.87;nan
43814;BME280;29669;55.706;37.656;2023-02-07T03:09:53;101881.97;;;-3.08;nan
43814;BME280;29669;55.706;37.656;2023-02-07T03:18:39;101900.53;;;-3.04;nan
43814;BME280;29669;55.706;37.656;2023-02-07T03:21:23;101902.06;;;-2.94;nan
43814;BME280;29669;55.706;37.656;2023-02-07T03:23:55;101904.50;;;-2.88;nan
43814;BME280;29669;55.706;37.656;2023-02-07T03:26:27;101912.06;;;-2.85;nan
43814;BME280;29669;55.706;37.656;2023-02-07T03:28:58;101913.66;;;-2.79;nan
43814;BME280;29669;55.706;37.656;2023-02-07T03:31:30;101929.56;;;-2.67;nan
43814;BME280;29669;55.706;37.656;2023-02-07T03:34:06;101937.19;;;-2.67;nan
43814;BME280;29669;55.706;37.656;2023-02-07T03:36:47;101941.31;;;-2.61;nan
43814;BME280;29669;55.706;37.656;2023-02-07T03:39:18;101938.78;;;-2.63;nan
43814;BME280;29669;55.706;37.656;2023-02-07T03:41:56;101939.59;;;-2.61;nan
43814;BME280;29669;55.706;37.656;2023-02-07T03:44:26;101940.47;;;-2.62;nan
43814;BME280;29669;55.706;37.656;2023-02-07T03:46:56;101942.94;;;-2.59;nan
43814;BME280;29669;55.706;37.656;2023-02-07T03:49:25;101953.97;;;-2.60;nan
43814;BME280;29669;55.706;37.656;2023-02-07T03:51:53;101957.38;;;-2.61;nan
43814;BME280;29669;55.706;37.656;2023-02-07T03:54:21;101973.47;;;-2.60;nan
43814;BME280;29669;55.706;37.656;2023-02-07T03:56:51;101970.09;;;-2.59;nan
43814;BME280;29669;55.706;37.656;2023-02-07T03:59:21;101969.28;;;-2.63;nan
43814;BME280;29669;55.706;37.656;2023-02-07T04:01:49;101980.44;;;-2.71;nan
43814;BME280;29669;55.706;37.656;2023-02-07T04:04:19;101964.44;;;-2.78;nan
43814;BME280;29669;55.706;37.656;2023-02-07T04:06:52;101987.34;;;-2.79;nan
43814;BME280;29669;55.706;37.656;2023-02-07T04:09:47;101976.47;;;-2.86;nan
43814;BME280;29669;55.706;37.656;2023-02-07T04:19:39;101988.19;;;-2.79;nan
43814;BME280;29669;55.706;37.656;2023-02-07T04:22:28;101991.50;;;-2.74;nan
43814;BME280;29669;55.706;37.656;2023-02-07T04:25:05;102007.59;;;-2.73;nan
43814;BME280;29669;55.706;37.656;2023-02-07T04:27:35;102000.78;;;-2.71;nan
43814;BME280;29669;55.706;37.656;2023-02-07T04:30:14;102002.31;;;-2.63;nan
43814;BME280;29669;55.706;37.656;2023-02-07T04:32:49;102009.13;;;-2.63;nan
43814;BME280;29669;55.706;37.656;2023-02-07T04:35:21;102013.44;;;-2.70;nan
43814;BME280;29669;55.706;37.656;2023-02-07T04:37:49;102024.47;;;-2.69;nan
43814;BME280;29669;55.706;37.656;2023-02-07T04:40:20;102022.78;;;-2.69;nan
43814;BME280;29669;55.706;37.656;2023-02-07T04:42:49;102021.06;;;-2.68;nan
43814;BME280;29669;55.706;37.656;2023-02-07T04:45:19;102021.75;;;-2.59;nan
43814;BME280;29669;55.706;37.656;2023-02-07T04:47:47;102026.81;;;-2.57;nan
43814;BME280;29669;55.706;37.656;2023-02-07T04:50:17;102051.28;;;-2.50;nan
43814;BME280;29669;55.706;37.656;2023-02-07T04:52:48;102045.44;;;-2.57;nan
43814;BME280;29669;55.706;37.656;2023-02-07T04:55:16;102048.88;;;-2.61;nan
43814;BME280;29669;55.706;37.656;2023-02-07T04:57:47;102048.78;;;-2.55;nan
43814;BME280;29669;55.706;37.656;2023-02-07T05:05:32;102049.75;;;-2.62;nan
43814;BME280;29669;55.706;37.656;2023-02-07T05:08:02;102062.44;;;-2.60;nan
43814;BME280;29669;55.706;37.656;2023-02-07T05:10:33;102069.13;;;-2.55;nan
43814;BME280;29669;55.706;37.656;2023-02-07T05:13:01;102069.09;;;-2.52;nan
43814;BME280;29669;55.706;37.656;2023-02-07T05:15:32;102074.19;;;-2.52;nan
43814;BME280;29669;55.706;37.656;2023-02-07T05:17:59;102081.75;;;-2.49;nan
43814;BME280;29669;55.706;37.656;2023-02-07T05:20:28;102089.41;;;-2.50;nan
43814;BME280;29669;55.706;37.656;2023-02-07T05:22:59;102085.91;;;-2.43;nan
43814;BME280;29669;55.706;37.656;2023-02-07T05:25:28;102092.72;;;-2.45;nan
43814;BME280;29669;55.706;37.656;2023-02-07T05:27:56;102100.25;;;-2.39;nan
43814;BME280;29669;55.706;37.656;2023-02-07T05:30:25;102101.94;;;-2.40;nan
43814;BME280;29669;55.706;37.656;2023-02-07T05:32:55;102113.75;;;-2.36;nan
43814;BME280;29669;55.706;37.656;2023-02-07T05:35:35;102109.56;;;-2.40;nan
43814;BME280;29669;55.706;37.656;2023-02-07T05:38:07;102102.84;;;-2.42;nan
43814;BME280;29669;55.706;37.656;2023-02-07T05:40:36;102107.84;;;-2.38;nan
43814;BME280;29669;55.706;37.656;2023-02-07T05:43:05;102110.34;;;-2.35;nan
43814;BME280;29669;55.706;37.656;2023-02-07T05:45:35;102109.41;;;-2.31;nan
43814;BME280;29669;55.706;37.656;2023-02-07T05:50:31;102117.91;;;-2.32;nan
43814;BME280;29669;55.706;37.656;2023-02-07T05:53:06;102112.06;;;-2.35;nan
43814;BME280;29669;55.706;37.656;2023-02-07T05:58:02;102117.75;;;-2.20;nan
43814;BME280;29669;55.706;37.656;2023-02-07T06:00:32;102119.47;;;-2.22;nan
43814;BME280;29669;55.706;37.656;2023-02-07T06:03:03;102120.31;;;-2.23;nan
43814;BME280;29669;55.706;37.656;2023-02-07T06:05:34;102122.84;;;-2.23;nan
43814;BME280;29669;55.706;37.656;2023-02-07T06:08:02;102129.53;;;-2.17;nan
43814;BME280;29669;55.706;37.656;2023-02-07T06:10:35;102130.22;;;-2.08;nan
43814;BME280;29669;55.706;37.656;2023-02-07T06:13:05;102128.53;;;-2.07;nan
43814;BME280;29669;55.706;37.656;2023-02-07T06:15:33;102142.91;;;-2.06;nan
43814;BME280;29669;55.706;37.656;2023-02-07T06:18:01;102132.03;;;-2.13;nan
43814;BME280;29669;55.706;37.656;2023-02-07T06:20:28;102155.81;;;-2.17;nan
43814;BME280;29669;55.706;37.656;2023-02-07T06:23:00;102146.53;;;-2.18;nan
43814;BME280;29669;55.706;37.656;2023-02-07T06:25:28;102149.97;;;-2.20;nan
43814;BME280;29669;55.706;37.656;2023-02-07T06:27:56;102158.31;;;-2.14;nan
43814;BME280;29669;55.706;37.656;2023-02-07T06:30:24;102158.22;;;-2.08;nan
43814;BME280;29669;55.706;37.656;2023-02-07T06:32:54;102150.59;;;-2.08;nan
43814;BME280;29669;55.706;37.656;2023-02-07T06:35:26;102167.41;;;-2.01;nan
43814;BME280;29669;55.706;37.656;2023-02-07T06:37:54;102157.38;;;-2.08;nan
43814;BME280;29669;55.706;37.656;2023-02-07T06:40:22;102175.19;;;-2.08;nan
43814;BME280;29669;55.706;37.656;2023-02-07T06:42:49;102183.66;;;-2.08;nan
43814;BME280;29669;55.706;37.656;2023-02-07T06:45:17;102176.81;;;-2.03;nan
43814;BME280;29669;55.706;37.656;2023-02-07T06:47:45;102190.28;;;-1.98;nan
43814;BME280;29669;55.706;37.656;2023-02-07T06:50:13;102194.50;;;-1.95;nan
43814;BME280;29669;55.706;37.656;2023-02-07T06:55:08;102187.88;;;-2.05;nan
43814;BME280;29669;55.706;37.656;2023-02-07T06:57:38;102199.69;;;-2.01;nan
43814;BME280;29669;55.706;37.656;2023-02-07T07:02:41;102196.28;;;-2.02;nan
43814;BME280;29669;55.706;37.656;2023-02-07T07:05:11;102197.00;;;-1.94;nan
43814;BME280;29669;55.706;37.656;2023-02-07T07:07:44;102209.63;;;-1.86;nan
43814;BME280;29669;55.706;37.656;2023-02-07T07:10:14;102215.47;;;-1.81;nan
43814;BME280;29669;55.706;37.656;2023-02-07T07:12:42;102215.44;;;-1.78;nan
43814;BME280;29669;55.706;37.656;2023-02-07T07:17:40;102234.72;;;-1.66;nan
43814;BME280;29669;55.706;37.656;2023-02-07T07:20:08;102232.19;;;-1.66;nan
43814;BME280;29669;55.706;37.656;2023-02-07T07:22:36;102231.28;;;-1.64;nan
43814;BME280;29669;55.706;37.656;2023-02-07T07:25:04;102232.91;;;-1.58;nan
43814;BME280;29669;55.706;37.656;2023-02-07T07:27:32;102238.78;;;-1.53;nan
43814;BME280;29669;55.706;37.656;2023-02-07T07:30:00;102235.50;;;-1.61;nan
43814;BME280;29669;55.706;37.656;2023-02-07T07:35:01;102249.88;;;-1.57;nan
43814;BME280;29669;55.706;37.656;2023-02-07T07:37:30;102249.16;;;-1.65;nan
43814;BME280;29669;55.706;37.656;2023-02-07T07:39:58;102240.69;;;-1.67;nan
43814;BME280;29669;55.706;37.656;2023-02-07T07:42:26;102252.50;;;-1.63;nan
43814;BME280;29669;55.706;37.656;2023-02-07T07:45:16;102247.31;;;-1.59;nan
43814;BME280;29669;55.706;37.656;2023-02-07T07:47:44;102254.94;;;-1.56;nan
43814;BME280;29669;55.706;37.656;2023-02-07T07:50:13;102244.84;;;-1.62;nan
43814;BME280;29669;55.706;37.656;2023-02-07T07:52:43;102238.16;;;-1.67;nan
43814;BME280;29669;55.706;37.656;2023-02-07T07:55:14;102244.13;;;-1.70;nan
43814;BME280;29669;55.706;37.656;2023-02-07T07:57:53;102238.16;;;-1.67;nan
43814;BME280;29669;55.706;37.656;2023-02-07T08:00:21;102244.00;;;-1.62;nan
43814;BME280;29669;55.706;37.656;2023-02-07T08:02:51;102242.31;;;-1.63;nan
43814;BME280;29669;55.706;37.656;2023-02-07T08:05:22;102241.44;;;-1.61;nan
43814;BME280;29669;55.706;37.656;2023-02-07T08:07:50;102244.78;;;-1.57;nan
43814;BME280;29669;55.706;37.656;2023-02-07T08:10:18;102244.59;;;-1.48;nan
43814;BME280;29669;55.706;37.656;2023-02-07T08:12:45;102250.41;;;-1.40;nan
43814;BME280;29669;55.706;37.656;2023-02-07T08:15:13;102273.03;;;-1.24;nan
43814;BME280;29669;55.706;37.656;2023-02-07T08:17:41;102264.41;;;-1.17;nan
43814;BME280;29669;55.706;37.656;2023-02-07T08:20:09;102269.47;;;-1.15;nan
43814;BME280;29669;55.706;37.656;2023-02-07T08:25:06;102272.81;;;-1.12;nan
43814;BME280;29669;55.706;37.656;2023-02-07T08:30:08;102272.94;;;-1.18;nan
43814;BME280;29669;55.706;37.656;2023-02-07T08:32:40;102276.91;;;-1.03;nan
43814;BME280;29669;55.706;37.656;2023-02-07T08:35:08;102284.38;;;-0.94;nan
43814;BME280;29669;55.706;37.656;2023-02-07T08:37:37;102274.13;;;-0.91;nan
43814;BME280;29669;55.706;37.656;2023-02-07T08:40:05;102280.09;;;-0.92;nan
43814;BME280;29669;55.706;37.656;2023-02-07T08:42:36;102268.34;;;-0.99;nan
43814;BME280;29669;55.706;37.656;2023-02-07T08:45:04;102254.78;;;-1.01;nan
43814;BME280;29669;55.706;37.656;2023-02-07T08:47:32;102270.00;;;-0.98;nan
43814;BME280;29669;55.706;37.656;2023-02-07T08:50:00;102270.84;;;-0.98;nan
43814;BME280;29669;55.706;37.656;2023-02-07T08:52:32;102261.50;;;-0.97;nan
43814;BME280;29669;55.706;37.656;2023-02-07T08:54:59;102266.19;;;-0.76;nan
43814;BME280;29669;55.706;37.656;2023-02-07T08:57:30;102269.97;;;-0.54;nan
43814;BME280;29669;55.706;37.656;2023-02-07T09:00:00;102264.47;;;-0.36;nan
43814;BME280;29669;55.706;37.656;2023-02-07T09:02:29;102270.31;;;-0.31;nan
43814;BME280;29669;55.706;37.656;2023-02-07T09:04:57;102263.47;;;-0.29;nan
43814;BME280;29669;55.706;37.656;2023-02-07T09:07:27;102259.91;;;-0.22;nan
43814;BME280;29669;55.706;37.656;2023-02-07T09:09:58;102261.53;;;-0.18;nan
43814;BME280;29669;55.706;37.656;2023-02-07T09:12:25;102265.00;;;-0.22;nan
43814;BME280;29669;55.706;37.656;2023-02-07T09:14:58;102275.16;;;-0.19;nan
43814;BME280;29669;55.706;37.656;2023-02-07T09:17:30;102278.91;;;-0.35;nan
43814;BME280;29669;55.706;37.656;2023-02-07T09:19:57;102279.59;;;-0.28;nan
43814;BME280;29669;55.706;37.656;2023-02-07T09:22:28;102268.13;;;-0.09;nan
43814;BME280;29669;55.706;37.656;2023-02-07T09:24:57;102270.41;;;0.03;nan
43814;BME280;29669;55.706;37.656;2023-02-07T09:27:25;102268.25;;;-0.14;nan
43814;BME280;29669;55.706;37.656;2023-02-07T09:29:53;102272.59;;;-0.19;nan
43814;BME280;29669;55.706;37.656;2023-02-07T09:32:21;102276.53;;;-0.04;nan
43814;BME280;29669;55.706;37.656;2023-02-07T09:34:48;102280.97;;;0.23;nan
43814;BME280;29669;55.706;37.656;2023-02-07T09:37:18;102296.59;;;0.46;nan
43814;BME280;29669;55.706;37.656;2023-02-07T09:39:48;102295.63;;;0.52;nan
43814;BME280;29669;55.706;37.656;2023-02-07T09:47:42;102295.81;;;0.44;nan
43814;BME280;29669;55.706;37.656;2023-02-07T09:50:24;102291.44;;;0.48;nan
43814;BME280;29669;55.706;37.656;2023-02-07T09:53:00;102299.91;;;0.50;nan
43814;BME280;29669;55.706;37.656;2023-02-07T09:55:43;102293.00;;;0.53;nan
43814;BME280;29669;55.706;37.656;2023-02-07T10:00:51;102283.56;;;0.57;nan
43814;BME280;29669;55.706;37.656;2023-02-07T10:03:25;102288.75;;;0.54;nan
43814;BME280;29669;55.706;37.656;2023-02-07T10:06:24;102292.19;;;0.53;nan
43814;BME280;29669;55.706;37.656;2023-02-07T10:09:01;102296.47;;;0.52;nan
43814;BME280;29669;55.706;37.656;2023-02-07T10:11:51;102311.03;;;0.49;nan
43814;BME280;29669;55.706;37.656;2023-02-07T10:30:35;102307.81;;;0.04;nan
43814;BME280;29669;55.706;37.656;2023-02-07T10:33:17;102292.75;;;-0.07;nan
43814;BME280;29669;55.706;37.656;2023-02-07T10:35:46;102296.84;;;0.00;nan
43814;BME280;29669;55.706;37.656;2023-02-07T10:40:55;102309.19;;;0.19;nan
43814;BME280;29669;55.706;37.656;2023-02-07T10:43:29;102302.34;;;0.19;nan
43814;BME280;29669;55.706;37.656;2023-02-07T10:46:05;102304.06;;;0.20;nan
43814;BME280;29669;55.706;37.656;2023-02-07T10:48:34;102302.31;;;0.22;nan
43814;BME280;29669;55.706;37.656;2023-02-07T10:53:48;102301.91;;;0.02;nan
43814;BME280;29669;55.706;37.656;2023-02-07T10:56:28;102311.81;;;-0.21;nan
43814;BME280;29669;55.706;37.656;2023-02-07T10:58:58;102308.66;;;-0.32;nan
43814;BME280;29669;55.706;37.656;2023-02-07T11:01:28;102302.88;;;-0.42;nan
43814;BME280;29669;55.706;37.656;2023-02-07T11:06:30;102306.69;;;-0.61;nan
43814;BME280;29669;55.706;37.656;2023-02-07T11:09:22;102312.44;;;-0.51;nan
43814;BME280;29669;55.706;37.656;2023-02-07T11:11:52;102310.63;;;-0.46;nan
43814;BME280;29669;55.706;37.656;2023-02-07T11:14:25;102314.91;;;-0.48;nan
43814;BME280;29669;55.706;37.656;2023-02-07T11:16:58;102322.69;;;-0.54;nan
43814;BME280;29669;55.706;37.656;2023-02-07T11:19:30;102309.34;;;-0.67;nan
43814;BME280;29669;55.706;37.656;2023-02-07T11:22:28;102318.53;;;-0.60;nan
43814;BME280;29669;55.706;37.656;2023-02-07T11:25:05;102314.63;;;-0.77;nan
43814;BME280;29669;55.706;37.656;2023-02-07T11:27:40;102325.00;;;-0.86;nan
43814;BME280;29669;55.706;37.656;2023-02-07T11:30:17;102307.56;;;-1.08;nan
43814;BME280;29669;55.706;37.656;2023-02-07T11:32:54;102324.44;;;-1.02;nan
43814;BME280;29669;55.706;37.656;2023-02-07T11:35:24;102324.34;;;-0.96;nan
43814;BME280;29669;55.706;37.656;2023-02-07T11:38:04;102331.94;;;-0.93;nan
43814;BME280;29669;55.706;37.656;2023-02-07T11:40:44;102323.44;;;-0.93;nan
43814;BME280;29669;55.706;37.656;2023-02-07T11:43:17;102309.00;;;-0.93;nan
43814;BME280;29669;55.706;37.656;2023-02-07T11:45:51;102322.47;;;-0.86;nan
43814;BME280;29669;55.706;37.656;2023-02-07T11:48:32;102331.13;;;-0.95;nan
43814;BME280;29669;55.706;37.656;2023-02-07T11:51:07;102332.19;;;-1.07;nan
43814;BME280;29669;55.706;37.656;2023-02-07T11:53:53;102329.72;;;-1.11;nan
43814;BME280;29669;55.706;37.656;2023-02-07T11:56:37;102329.00;;;-1.18;nan
43814;BME280;29669;55.706;37.656;2023-02-07T11:59:31;102335.03;;;-1.25;nan
43814;BME280;29669;55.706;37.656;2023-02-07T12:02:16;102319.66;;;-1.19;nan
43814;BME280;29669;55.706;37.656;2023-02-07T12:04:45;102324.88;;;-1.26;nan
43814;BME280;29669;55.706;37.656;2023-02-07T12:09:58;102332.69;;;-1.35;nan
43814;BME280;29669;55.706;37.656;2023-02-07T12:12:53;102334.47;;;-1.40;nan
43814;BME280;29669;55.706;37.656;2023-02-07T12:15:39;102333.56;;;-1.38;nan
43814;BME280;29669;55.706;37.656;2023-02-07T12:21:21;102330.91;;;-1.32;nan
43814;BME280;29669;55.706;37.656;2023-02-07T12:23:59;102330.97;;;-1.36;nan
43814;BME280;29669;55.706;37.656;2023-02-07T12:26:36;102319.03;;;-1.31;nan
43814;BME280;29669;55.706;37.656;2023-02-07T12:32:22;102318.19;;;-1.32;nan
43814;BME280;29669;55.706;37.656;2023-02-07T12:35:16;102332.66;;;-1.34;nan
43814;BME280;29669;55.706;37.656;2023-02-07T12:37:58;102331.88;;;-1.37;nan
43814;BME280;29669;55.706;37.656;2023-02-07T12:43:26;102346.16;;;-1.27;nan
43814;BME280;29669;55.706;37.656;2023-02-07T12:48:57;102349.38;;;-1.19;nan
43814;BME280;29669;55.706;37.656;2023-02-07T12:52:03;102355.28;;;-1.17;nan
43814;BME280;29669;55.706;37.656;2023-02-07T12:58:07;102358.91;;;-1.30;nan
43814;BME280;29669;55.706;37.656;2023-02-07T13:13:52;102366.69;;;-1.38;nan
43814;BME280;29669;55.706;37.656;2023-02-07T13:16:28;102365.09;;;-1.45;nan
43814;BME280;29669;55.706;37.656;2023-02-07T13:21:58;102360.94;;;-1.50;nan
43814;BME280;29669;55.706;37.656;2023-02-07T13:24:29;102358.34;;;-1.46;nan
43814;BME280;29669;55.706;37.656;2023-02-07T13:27:06;102349.69;;;-1.37;nan
43814;BME280;29669;55.706;37.656;2023-02-07T13:29:38;102359.13;;;-1.42;nan
43814;BME280;29669;55.706;37.656;2023-02-07T13:34:45;102366.31;;;-1.70;nan
43814;BME280;29669;55.706;37.656;2023-02-07T13:37:16;102366.50;;;-1.80;nan
43814;BME280;29669;55.706;37.656;2023-02-07T13:54:28;102360.97;;;-2.11;nan
43814;BME280;29669;55.706;37.656;2023-02-07T13:56:59;102348.31;;;-2.17;nan
43814;BME280;29669;55.706;37.656;2023-02-07T14:02:51;102360.88;;;-2.04;nan
43814;BME280;29669;55.706;37.656;2023-02-07T14:05:34;102353.16;;;-1.98;nan
43814;BME280;29669;55.706;37.656;2023-02-07T14:10:54;102364.19;;;-1.97;nan
43814;BME280;29669;55.706;37.656;2023-02-07T14:13:28;102374.38;;;-2.00;nan
43814;BME280;29669;55.706;37.656;2023-02-07T14:18:45;102374.38;;;-2.00;nan
43814;BME280;29669;55.706;37.656;2023-02-07T14:32:24;102375.47;;;-2.16;nan
43814;BME280;29669;55.706;37.656;2023-02-07T14:40:18;102381.56;;;-2.31;nan
43814;BME280;29669;55.706;37.656;2023-02-07T14:43:06;102388.28;;;-2.27;nan
43814;BME280;29669;55.706;37.656;2023-02-07T14:53:40;102399.44;;;-2.35;nan
43814;BME280;29669;55.706;37.656;2023-02-07T14:56:40;102395.16;;;-2.33;nan
43814;BME280;29669;55.706;37.656;2023-02-07T14:59:12;102385.09;;;-2.42;nan
43814;BME280;29669;55.706;37.656;2023-02-07T15:01:41;102402.06;;;-2.46;nan
43814;BME280;29669;55.706;37.656;2023-02-07T15:04:09;102386.13;;;-2.60;nan
43814;BME280;29669;55.706;37.656;2023-02-07T15:06:41;102405.53;;;-2.53;nan
43814;BME280;29669;55.706;37.656;2023-02-07T15:09:24;102404.72;;;-2.55;nan
43814;BME280;29669;55.706;37.656;2023-02-07T15:12:00;102412.38;;;-2.56;nan
43814;BME280;29669;55.706;37.656;2023-02-07T15:14:42;102411.56;;;-2.60;nan
43814;BME280;29669;55.706;37.656;2023-02-07T15:17:10;102408.16;;;-2.59;nan
43814;BME280;29669;55.706;37.656;2023-02-07T15:22:07;102408.16;;;-2.57;nan
43814;BME280;29669;55.706;37.656;2023-02-07T15:24:54;102421.72;;;-2.60;nan
43814;BME280;29669;55.706;37.656;2023-02-07T15:27:25;102422.59;;;-2.62;nan
43814;BME280;29669;55.706;37.656;2023-02-07T15:29:59;102427.72;;;-2.65;nan
43814;BME280;29669;55.706;37.656;2023-02-07T15:32:33;102424.44;;;-2.76;nan
43814;BME280;29669;55.706;37.656;2023-02-07T15:35:19;102429.50;;;-2.75;nan
43814;BME280;29669;55.706;37.656;2023-02-07T15:37:50;102425.34;;;-2.85;nan
43814;BME280;29669;55.706;37.656;2023-02-07T15:40:22;102427.94;;;-2.88;nan
43814;BME280;29669;55.706;37.656;2023-02-07T15:42:55;102431.31;;;-2.89;nan
43814;BME280;29669;55.706;37.656;2023-02-07T15:45:29;102433.06;;;-2.94;nan
43814;BME280;29669;55.706;37.656;2023-02-07T15:48:05;102427.13;;;-2.95;nan
43814;BME280;29669;55.706;37.656;2023-02-07T15:50:54;102422.09;;;-2.98;nan
43814;BME280;29669;55.706;37.656;2023-02-07T15:53:29;102424.63;;;-3.01;nan
43814;BME280;29669;55.706;37.656;2023-02-07T15:56:03;102422.13;;;-3.02;nan
43814;BME280;29669;55.706;37.656;2023-02-07T16:01:30;102443.28;;;-3.00;nan
43814;BME280;29669;55.706;37.656;2023-02-07T16:04:02;102425.53;;;-3.06;nan
43814;BME280;29669;55.706;37.656;2023-02-07T16:07:03;102423.81;;;-3.04;nan
43814;BME280;29669;55.706;37.656;2023-02-07T16:12:41;102451.69;;;-2.97;nan
43814;BME280;29669;55.706;37.656;2023-02-07T16:15:26;102451.75;;;-3.00;nan
43814;BME280;29669;55.706;37.656;2023-02-07T16:17:54;102439.91;;;-3.02;nan
43814;BME280;29669;55.706;37.656;2023-02-07T16:20:23;102447.53;;;-3.02;nan
43814;BME280;29669;55.706;37.656;2023-02-07T16:22:55;102444.13;;;-3.01;nan
43814;BME280;29669;55.706;37.656;2023-02-07T16:25:34;102446.66;;;-3.00;nan
43814;BME280;29669;55.706;37.656;2023-02-07T16:30:35;102436.53;;;-3.01;nan
43814;BME280;29669;55.706;37.656;2023-02-07T16:33:06;102427.19;;;-3.02;nan
43814;BME280;29669;55.706;37.656;2023-02-07T16:35:34;102423.81;;;-3.01;nan
43814;BME280;29669;55.706;37.656;2023-02-07T16:38:05;102422.16;;;-3.08;nan
43814;BME280;29669;55.706;37.656;2023-02-07T16:40:33;102422.09;;;-2.99;nan
43814;BME280;29669;55.706;37.656;2023-02-07T16:43:05;102430.53;;;-2.97;nan
43814;BME280;29669;55.706;37.656;2023-02-07T16:45:37;102445.03;;;-3.08;nan
43814;BME280;29669;55.706;37.656;2023-02-07T16:50:39;102455.22;;;-3.11;nan
43814;BME280;29669;55.706;37.656;2023-02-07T16:53:12;102451.88;;;-3.16;nan
43814;BME280;29669;55.706;37.656;2023-02-07T16:55:52;102455.31;;;-3.22;nan
43814;BME280;29669;55.706;37.656;2023-02-07T16:58:29;102448.50;;;-3.18;nan
43814;BME280;29669;55.706;37.656;2023-02-07T17:00:57;102440.88;;;-3.20;nan
43814;BME280;29669;55.706;37.656;2023-02-07T17:03:41;102445.09;;;-3.14;nan
43814;BME280;29669;55.706;37.656;2023-02-07T17:06:13;102436.63;;;-3.18;nan
43814;BME280;29669;55.706;37.656;2023-02-07T17:11:24;102435.84;;;-3.24;nan